Time;durP1;ratioP1;P1;durP2;ratioP2;P2;SDS_P1;SDS_P2;PMS_P1;PMS_P2;Temp;Humidity;BMP_temperature;BMP_pressure;BME280_temperature;BME280_humidity;BME280_pressure;Samples;Min_cycle;Max_cycle;Signal;HPM_P1;HPM_P2
2024/03/19 00:02:09;;;;;;;;;;;;;;;6.89;47.07;101887.09;5049126;27;96997;-71
2024/03/19 00:04:35;;;;;;;;;;;;;;;6.84;47.09;101889.72;5053272;27;96906;-71
2024/03/19 00:07:03;;;;;;;;;;;;;;;6.82;47.04;101887.97;5051810;27;101929;-70
2024/03/19 00:09:29;;;;;;;;;;;;;;;6.66;47.22;101885.38;5050608;27;101132;-72
2024/03/19 00:11:55;;;;;;;;;;;;;;;6.53;47.83;101888.88;5051834;27;97359;-70
2024/03/19 00:14:22;;;;;;;;;;;;;;;6.61;47.80;101886.25;5051954;27;96791;-71
2024/03/19 00:16:48;;;;;;;;;;;;;;;6.56;48.15;101882.78;5051359;27;100164;-71
2024/03/19 00:19:17;;;;;;;;;;;;;;;6.46;48.35;101889.78;5051089;27;98821;-71
2024/03/19 00:21:43;;;;;;;;;;;;;;;6.49;48.66;101887.16;5049200;27;97202;-70
2024/03/19 00:24:11;;;;;;;;;;;;;;;6.46;48.11;101892.38;5050794;27;97206;-72
2024/03/19 00:26:37;;;;;;;;;;;;;;;6.42;48.84;101885.41;5049881;27;99143;-72
2024/03/19 00:29:03;;;;;;;;;;;;;;;6.23;48.99;101883.66;5052810;27;99314;-72
2024/03/19 00:31:30;;;;;;;;;;;;;;;6.47;48.47;101894.16;5047791;27;97505;-71
2024/03/19 00:33:57;;;;;;;;;;;;;;;6.33;48.84;101878.41;5051129;27;99011;-71
2024/03/19 00:36:23;;;;;;;;;;;;;;;6.40;48.73;101885.41;5047626;27;98169;-72
2024/03/19 00:38:49;;;;;;;;;;;;;;;6.42;48.75;101874.91;5047791;27;98745;-71
2024/03/19 00:41:17;;;;;;;;;;;;;;;6.43;48.74;101884.53;5051631;27;96667;-71
2024/03/19 00:43:43;;;;;;;;;;;;;;;6.34;48.83;101880.16;5051782;27;96769;-71
2024/03/19 00:46:09;;;;;;;;;;;;;;;6.41;49.11;101883.66;5052313;27;97712;-71
2024/03/19 00:48:36;;;;;;;;;;;;;;;6.38;48.97;101887.13;5048884;27;98752;-71
2024/03/19 00:51:02;;;;;;;;;;;;;;;6.38;49.19;101887.13;5051898;27;97058;-71
2024/03/19 00:53:28;;;;;;;;;;;;;;;6.51;49.09;101885.38;5051853;27;96840;-71
2024/03/19 00:55:54;;;;;;;;;;;;;;;6.42;49.14;101882.78;5050286;27;99195;-72
2024/03/19 00:58:22;;;;;;;;;;;;;;;6.40;49.24;101882.78;5052290;27;99456;-74
2024/03/19 01:00:48;;;;;;;;;;;;;;;6.43;49.29;101891.53;5049464;27;96892;-71
2024/03/19 01:03:15;;;;;;;;;;;;;;;6.21;49.93;101875.78;5050920;27;96831;-70
2024/03/19 01:05:41;;;;;;;;;;;;;;;6.45;48.97;101888.00;5050935;27;97849;-71
2024/03/19 01:08:07;;;;;;;;;;;;;;;6.45;49.06;101876.63;5051355;27;98737;-72
2024/03/19 01:10:34;;;;;;;;;;;;;;;6.42;49.36;101882.78;5049243;27;96844;-71
2024/03/19 01:13:00;;;;;;;;;;;;;;;6.42;49.28;101871.41;5051590;27;96757;-72
2024/03/19 01:15:29;;;;;;;;;;;;;;;6.46;49.18;101866.13;5049343;27;101291;-71
2024/03/19 01:17:56;;;;;;;;;;;;;;;6.37;49.35;101876.63;5043593;27;98862;-71
2024/03/19 01:20:22;;;;;;;;;;;;;;;6.49;49.19;101871.41;5049758;27;96796;-72
2024/03/19 01:22:48;;;;;;;;;;;;;;;6.47;49.15;101873.13;5051349;27;97013;-72
2024/03/19 01:25:14;;;;;;;;;;;;;;;6.43;49.14;101866.16;5049348;27;98895;-72
2024/03/19 01:27:40;;;;;;;;;;;;;;;6.45;49.29;101871.38;5052539;27;98967;-71
2024/03/19 01:30:07;;;;;;;;;;;;;;;6.39;49.76;101870.50;5048418;27;96811;-71
2024/03/19 01:32:35;;;;;;;;;;;;;;;6.43;49.75;101868.78;5050796;27;96923;-71
2024/03/19 01:35:01;;;;;;;;;;;;;;;6.26;49.91;101873.13;5050504;27;100701;-71
2024/03/19 01:37:27;;;;;;;;;;;;;;;6.06;50.45;101869.63;5051248;27;97488;-71
2024/03/19 01:39:54;;;;;;;;;;;;;;;6.16;50.27;101869.66;5049793;27;96690;-71
2024/03/19 01:42:20;;;;;;;;;;;;;;;6.10;50.53;101869.66;5052261;27;97303;-72
2024/03/19 01:44:46;;;;;;;;;;;;;;;6.14;50.52;101873.16;5048542;27;99187;-71
2024/03/19 01:47:12;;;;;;;;;;;;;;;6.05;50.81;101866.13;5050265;27;99591;-71
2024/03/19 01:49:40;;;;;;;;;;;;;;;6.02;50.92;101871.41;5046546;27;97177;-70
2024/03/19 01:52:07;;;;;;;;;;;;;;;6.10;50.56;101866.16;5049298;27;96799;-70
2024/03/19 01:54:33;;;;;;;;;;;;;;;5.95;50.85;101877.50;5049362;27;99260;-71
2024/03/19 01:57:03;;;;;;;;;;;;;;;6.03;50.17;101875.78;5050149;27;99447;-71
2024/03/19 01:59:32;;;;;;;;;;;;;;;6.10;49.98;101874.03;5052075;27;97204;-71
2024/03/19 02:01:58;;;;;;;;;;;;;;;6.08;50.09;101875.75;5050973;27;97329;-72
2024/03/19 02:04:25;;;;;;;;;;;;;;;6.14;49.74;101881.03;5050042;27;101256;-71
2024/03/19 02:06:53;;;;;;;;;;;;;;;6.13;49.61;101877.50;5053729;27;101087;-72
2024/03/19 02:09:20;;;;;;;;;;;;;;;5.98;50.18;101877.50;5054318;27;97310;-72
2024/03/19 02:11:46;;;;;;;;;;;;;;;6.05;50.03;101867.88;5053859;27;98017;-72
2024/03/19 02:14:12;;;;;;;;;;;;;;;6.14;49.50;101875.78;5051728;27;99844;-70
2024/03/19 02:16:39;;;;;;;;;;;;;;;6.10;49.66;101877.53;5054662;27;99102;-70
2024/03/19 02:19:06;;;;;;;;;;;;;;;6.04;50.15;101877.50;5051475;27;97172;-71
2024/03/19 02:21:33;;;;;;;;;;;;;;;6.03;50.10;101874.91;5051458;27;96893;-71
2024/03/19 02:24:01;;;;;;;;;;;;;;;6.07;50.04;101867.03;5050220;27;101580;-70
2024/03/19 02:26:29;;;;;;;;;;;;;;;6.11;49.95;101862.63;5054323;27;98016;-71
2024/03/19 02:28:59;;;;;;;;;;;;;;;5.98;50.37;101867.00;5055958;27;96778;-72
2024/03/19 02:31:27;;;;;;;;;;;;;;;5.87;50.73;101856.50;5050253;27;97283;-72
2024/03/19 02:33:53;;;;;;;;;;;;;;;6.09;50.11;101860.03;5052477;27;101346;-70
2024/03/19 02:36:20;;;;;;;;;;;;;;;5.99;50.40;101859.13;5054314;27;98926;-70
2024/03/19 02:38:46;;;;;;;;;;;;;;;5.90;50.48;101859.16;5051571;27;96850;-71
2024/03/19 02:41:14;;;;;;;;;;;;;;;5.88;51.01;101854.75;5054101;27;97584;-71
2024/03/19 02:43:40;;;;;;;;;;;;;;;5.77;51.10;101844.22;5050352;27;97561;-71
2024/03/19 02:46:06;;;;;;;;;;;;;;;5.85;50.91;101844.22;5053975;27;99333;-70
2024/03/19 02:48:32;;;;;;;;;;;;;;;5.92;50.64;101840.75;5051191;27;96814;-72
2024/03/19 02:50:59;;;;;;;;;;;;;;;5.91;50.48;101850.38;5052356;27;96902;-70
2024/03/19 02:53:26;;;;;;;;;;;;;;;5.90;50.96;101855.66;5051507;27;99002;-70
2024/03/19 02:55:52;;;;;;;;;;;;;;;5.87;50.57;101851.25;5045987;27;101522;-70
2024/03/19 02:58:20;;;;;;;;;;;;;;;5.75;50.92;101856.47;5051797;27;96874;-71
2024/03/19 03:00:46;;;;;;;;;;;;;;;5.82;51.44;101859.97;5047748;27;96925;-72
2024/03/19 03:03:12;;;;;;;;;;;;;;;5.81;51.08;101864.34;5050618;27;101155;-71
2024/03/19 03:05:39;;;;;;;;;;;;;;;5.72;51.33;101864.31;5050189;27;98830;-71
2024/03/19 03:08:06;;;;;;;;;;;;;;;5.82;51.18;101867.84;5052855;27;98588;-71
2024/03/19 03:10:32;;;;;;;;;;;;;;;5.96;50.70;101859.16;5048505;27;96831;-71
2024/03/19 03:12:58;;;;;;;;;;;;;;;5.89;50.95;101861.75;5047508;27;98989;-72
2024/03/19 03:15:26;;;;;;;;;;;;;;;5.86;51.26;101848.59;5052323;27;99494;-71
2024/03/19 03:17:52;;;;;;;;;;;;;;;5.97;51.34;101853.00;5052598;27;97124;-71
2024/03/19 03:20:19;;;;;;;;;;;;;;;5.96;50.96;101846.03;5052413;27;96873;-72
2024/03/19 03:22:44;;;;;;;;;;;;;;;6.02;50.79;101852.16;5051418;27;98885;-72
2024/03/19 03:25:11;;;;;;;;;;;;;;;5.98;51.43;101846.00;5053070;27;99149;-71
2024/03/19 03:27:37;;;;;;;;;;;;;;;6.12;50.82;101849.50;5053662;27;96804;-71
2024/03/19 03:30:05;;;;;;;;;;;;;;;6.22;50.23;101858.28;5049762;27;97033;-71
2024/03/19 03:32:32;;;;;;;;;;;;;;;5.89;51.13;101859.13;5048139;27;99582;-71
2024/03/19 03:34:58;;;;;;;;;;;;;;;5.98;51.19;101862.63;5051530;27;98697;-71
2024/03/19 03:37:25;;;;;;;;;;;;;;;6.04;50.91;101856.50;5053430;27;97055;-72
2024/03/19 03:39:52;;;;;;;;;;;;;;;6.12;51.19;101859.13;5049434;27;96854;-71
2024/03/19 03:42:18;;;;;;;;;;;;;;;5.98;50.96;101859.13;5052350;27;98929;-71
2024/03/19 03:44:45;;;;;;;;;;;;;;;5.89;51.52;101860.00;5048542;27;101390;-71
2024/03/19 03:47:11;;;;;;;;;;;;;;;5.80;52.03;101866.94;5052636;27;97123;-71
2024/03/19 03:49:38;;;;;;;;;;;;;;;5.82;51.81;101863.47;5046034;27;96809;-71
2024/03/19 03:52:05;;;;;;;;;;;;;;;5.81;51.77;101872.19;5051289;27;101354;-71
2024/03/19 03:54:31;;;;;;;;;;;;;;;5.70;52.17;101871.31;5050041;27;99499;-71
2024/03/19 03:56:57;;;;;;;;;;;;;;;5.80;51.87;101866.94;5053547;27;98217;-71
2024/03/19 03:59:24;;;;;;;;;;;;;;;5.75;52.04;101866.94;5047372;27;97052;-72
2024/03/19 04:01:50;;;;;;;;;;;;;;;6.06;51.01;101873.13;5051014;27;98164;-71
2024/03/19 04:04:16;;;;;;;;;;;;;;;5.87;51.54;101876.56;5043512;27;97721;-71
2024/03/19 04:06:44;;;;;;;;;;;;;;;5.69;51.79;101874.81;5049015;27;96811;-71
2024/03/19 04:09:10;;;;;;;;;;;;;;;5.70;51.67;101876.56;5052604;27;97336;-71
2024/03/19 04:11:39;;;;;;;;;;;;;;;5.65;52.21;101880.88;5051030;27;98096;-71
2024/03/19 04:14:05;;;;;;;;;;;;;;;5.76;51.85;101875.69;5045329;27;98787;-72
2024/03/19 04:16:31;;;;;;;;;;;;;;;5.64;51.74;101876.53;5051041;27;96706;-71
2024/03/19 04:18:57;;;;;;;;;;;;;;;5.73;51.53;101878.28;5045553;27;96789;-71
2024/03/19 04:21:24;;;;;;;;;;;;;;;5.59;52.23;101883.50;5049656;27;98679;-71
2024/03/19 04:23:51;;;;;;;;;;;;;;;5.58;52.05;101892.22;5050475;27;98760;-71
2024/03/19 04:26:18;;;;;;;;;;;;;;;5.58;51.88;101886.97;5051347;27;100450;-71
2024/03/19 04:28:44;;;;;;;;;;;;;;;5.79;51.40;101886.16;5050599;27;97127;-70
2024/03/19 04:31:10;;;;;;;;;;;;;;;5.63;52.19;101893.16;5046114;27;98873;-71
2024/03/19 04:33:37;;;;;;;;;;;;;;;5.52;52.57;101900.06;5048729;27;97551;-72
2024/03/19 04:36:03;;;;;;;;;;;;;;;5.53;52.52;101901.84;5051538;27;96811;-71
2024/03/19 04:38:30;;;;;;;;;;;;;;;5.54;52.37;101906.22;5050694;27;97712;-71
2024/03/19 04:40:57;;;;;;;;;;;;;;;5.34;52.69;101910.50;5049989;27;98891;-71
2024/03/19 04:43:24;;;;;;;;;;;;;;;5.52;52.71;101902.69;5047781;27;99217;-71
2024/03/19 04:45:50;;;;;;;;;;;;;;;5.45;52.93;101911.41;5048486;27;97279;-71
2024/03/19 04:48:17;;;;;;;;;;;;;;;5.35;52.96;101909.63;5049692;27;97014;-72
2024/03/19 04:50:43;;;;;;;;;;;;;;;5.43;52.87;101900.94;5046696;27;98951;-72
2024/03/19 04:53:09;;;;;;;;;;;;;;;5.60;52.52;101906.22;5050387;27;100196;-71
2024/03/19 04:55:36;;;;;;;;;;;;;;;5.57;52.28;101896.63;5052371;27;97020;-70
2024/03/19 04:58:05;;;;;;;;;;;;;;;5.55;52.22;101893.13;5050494;27;98530;-70
2024/03/19 05:00:31;;;;;;;;;;;;;;;5.52;52.55;101889.59;5049896;27;99969;-71
2024/03/19 05:02:57;;;;;;;;;;;;;;;5.40;53.05;101897.41;5049716;27;99519;-71
2024/03/19 05:05:24;;;;;;;;;;;;;;;5.52;52.80;101898.34;5050764;27;96766;-71
2024/03/19 05:07:50;;;;;;;;;;;;;;;5.61;52.06;101901.00;5050789;27;96920;-71
2024/03/19 05:10:16;;;;;;;;;;;;;;;5.40;52.82;101900.03;5051972;27;98862;-71
2024/03/19 05:12:43;;;;;;;;;;;;;;;5.45;52.92;101900.91;5052700;27;99093;-70
2024/03/19 05:15:10;;;;;;;;;;;;;;;5.52;52.73;101898.34;5050675;27;96838;-71
2024/03/19 05:17:37;;;;;;;;;;;;;;;5.42;52.51;101893.94;5050026;27;97593;-70
2024/03/19 05:20:05;;;;;;;;;;;;;;;5.50;52.52;101894.84;5050963;27;98974;-72
2024/03/19 05:22:31;;;;;;;;;;;;;;;5.57;52.56;101885.25;5051393;27;99171;-71
2024/03/19 05:24:57;;;;;;;;;;;;;;;5.50;52.24;101886.09;5049714;27;97646;-71
2024/03/19 05:27:24;;;;;;;;;;;;;;;5.61;52.16;101874.78;5054003;27;96769;-71
2024/03/19 05:29:50;;;;;;;;;;;;;;;5.60;52.55;101874.75;5043425;27;99532;-72
2024/03/19 05:32:17;;;;;;;;;;;;;;;5.68;52.07;101873.03;5050892;27;99443;-72
2024/03/19 05:34:44;;;;;;;;;;;;;;;5.48;52.48;101879.97;5053645;27;96765;-73
2024/03/19 05:37:10;;;;;;;;;;;;;;;5.66;52.51;101882.66;5054674;27;97237;-71
2024/03/19 05:39:37;;;;;;;;;;;;;;;5.59;52.83;101889.63;5051755;27;98807;-71
2024/03/19 05:42:03;;;;;;;;;;;;;;;5.64;53.22;101884.41;5052779;27;98868;-71
2024/03/19 05:44:29;;;;;;;;;;;;;;;5.73;52.86;101881.78;5052861;27;96932;-71
2024/03/19 05:46:55;;;;;;;;;;;;;;;5.66;52.75;101885.28;5055308;27;96906;-72
2024/03/19 05:49:24;;;;;;;;;;;;;;;5.70;52.58;101889.66;5052507;27;98845;-71
2024/03/19 05:51:50;;;;;;;;;;;;;;;5.72;52.69;101892.28;5053653;27;98928;-71
2024/03/19 05:54:16;;;;;;;;;;;;;;;5.81;52.11;101895.81;5052896;27;98709;-71
2024/03/19 05:56:42;;;;;;;;;;;;;;;5.83;52.29;101896.69;5055463;27;96787;-71
2024/03/19 05:59:09;;;;;;;;;;;;;;;5.84;51.65;101905.44;5052259;27;98108;-72
2024/03/19 06:01:35;;;;;;;;;;;;;;;5.93;51.72;101911.59;5053278;27;100355;-72
2024/03/19 06:04:03;;;;;;;;;;;;;;;5.94;51.55;101913.34;5052678;27;97059;-72
2024/03/19 06:06:31;;;;;;;;;;;;;;;5.97;51.46;101915.13;5054520;27;96712;-72
2024/03/19 06:08:57;;;;;;;;;;;;;;;6.12;51.00;101909.00;5049818;27;99246;-72
2024/03/19 06:11:24;;;;;;;;;;;;;;;6.17;51.32;101917.78;5053662;27;97980;-72
2024/03/19 06:13:50;;;;;;;;;;;;;;;6.26;50.58;101920.38;5053054;27;97172;-72
2024/03/19 06:16:17;;;;;;;;;;;;;;;6.31;50.68;101914.25;5050261;27;96756;-71
2024/03/19 06:18:43;;;;;;;;;;;;;;;6.42;50.85;101916.91;5044926;27;98885;-71
2024/03/19 06:21:13;;;;;;;;;;;;;;;6.43;50.33;101918.66;5051381;27;99452;-71
2024/03/19 06:23:40;;;;;;;;;;;;;;;6.62;49.74;101927.41;5053614;27;96855;-71
2024/03/19 06:26:06;;;;;;;;;;;;;;;6.55;50.08;101921.28;5052242;27;98653;-71
2024/03/19 06:28:34;;;;;;;;;;;;;;;6.62;49.35;101922.16;5055467;27;99493;-71
2024/03/19 06:31:00;;;;;;;;;;;;;;;6.58;49.59;101923.00;5050035;27;97677;-71
2024/03/19 06:33:26;;;;;;;;;;;;;;;6.56;49.31;101930.91;5052627;27;96811;-71
2024/03/19 06:35:52;;;;;;;;;;;;;;;6.77;48.91;101945.75;5053155;27;98801;-71
2024/03/19 06:38:19;;;;;;;;;;;;;;;6.99;48.33;101938.75;5050948;27;98994;-71
2024/03/19 06:40:47;;;;;;;;;;;;;;;7.12;48.45;101938.72;5050406;27;98748;-71
2024/03/19 06:43:13;;;;;;;;;;;;;;;7.17;47.95;101944.81;5049800;27;97119;-71
2024/03/19 06:45:40;;;;;;;;;;;;;;;7.25;47.97;101946.56;5051243;27;97166;-71
2024/03/19 06:48:07;;;;;;;;;;;;;;;7.44;47.05;101945.63;5053209;27;98783;-70
2024/03/19 06:50:33;;;;;;;;;;;;;;;7.40;47.25;101949.16;5051716;27;101690;-70
2024/03/19 06:53:00;;;;;;;;;;;;;;;7.50;47.05;101946.47;5051287;27;97455;-71
2024/03/19 06:55:27;;;;;;;;;;;;;;;7.65;46.56;101949.94;5053601;27;97145;-71
2024/03/19 06:57:56;;;;;;;;;;;;;;;7.69;46.23;101951.66;5051930;27;98962;-70
2024/03/19 07:00:23;;;;;;;;;;;;;;;7.46;46.83;101950.00;5048543;27;99184;-72
2024/03/19 07:02:50;;;;;;;;;;;;;;;7.68;46.38;101961.28;5052363;27;97316;-70
2024/03/19 07:05:16;;;;;;;;;;;;;;;7.80;46.24;101955.13;5053382;27;96889;-71
2024/03/19 07:07:43;;;;;;;;;;;;;;;7.84;45.77;101946.31;5052339;27;101890;-72
2024/03/19 07:10:11;;;;;;;;;;;;;;;7.96;45.93;101954.16;5050835;27;98853;-71
2024/03/19 07:12:39;;;;;;;;;;;;;;;8.12;45.78;101957.56;5051602;27;96741;-71
2024/03/19 07:15:11;;;;;;;;;;;;;;;8.04;45.00;101954.97;5052162;27;97230;-71
2024/03/19 07:17:38;;;;;;;;;;;;;;;8.11;45.21;101964.59;5053083;27;99031;-71
2024/03/19 07:20:09;;;;;;;;;;;;;;;8.16;45.24;101965.44;5047852;27;98778;-70
2024/03/19 07:22:35;;;;;;;;;;;;;;;8.17;44.94;101956.66;5053403;27;98841;-71
2024/03/19 07:25:02;;;;;;;;;;;;;;;8.34;44.82;101949.53;5045817;27;100550;-71
2024/03/19 07:27:28;;;;;;;;;;;;;;;8.47;44.87;101952.94;5056068;27;101289;-72
2024/03/19 07:29:54;;;;;;;;;;;;;;;8.34;44.63;101944.28;5052890;27;97515;-72
2024/03/19 07:32:22;;;;;;;;;;;;;;;8.53;44.79;101954.69;5057339;27;97406;-71
2024/03/19 07:34:49;;;;;;;;;;;;;;;8.70;44.12;101951.03;5053391;27;97062;-71
2024/03/19 07:37:17;;;;;;;;;;;;;;;8.93;43.51;101949.91;5060726;27;102122;-71
2024/03/19 07:39:43;;;;;;;;;;;;;;;9.13;42.92;101951.47;5052353;27;99896;-70
2024/03/19 07:42:09;;;;;;;;;;;;;;;9.12;43.27;101947.06;5053731;27;96871;-71
2024/03/19 07:44:38;;;;;;;;;;;;;;;9.02;43.52;101950.72;5052612;27;96798;-72
2024/03/19 07:47:07;;;;;;;;;;;;;;;9.09;43.77;101957.69;5051691;27;98750;-71
2024/03/19 07:49:35;;;;;;;;;;;;;;;9.17;43.31;101949.69;5048288;27;98277;-72
2024/03/19 07:52:02;;;;;;;;;;;;;;;9.14;43.67;101958.50;5050366;27;96950;-72
2024/03/19 07:54:28;;;;;;;;;;;;;;;9.43;43.22;101957.31;5044821;27;97093;-72
2024/03/19 07:56:55;;;;;;;;;;;;;;;9.19;43.84;101969.88;5051327;27;98151;-71
2024/03/19 07:59:21;;;;;;;;;;;;;;;9.09;43.93;101972.63;5051145;27;100396;-71
2024/03/19 08:01:48;;;;;;;;;;;;;;;9.03;44.06;101972.69;5043604;27;97023;-70
2024/03/19 08:04:15;;;;;;;;;;;;;;;8.95;43.85;101966.59;5052281;27;99269;-71
2024/03/19 08:06:43;;;;;;;;;;;;;;;8.98;43.95;101975.38;5048847;27;99289;-71
2024/03/19 08:09:10;;;;;;;;;;;;;;;9.06;43.75;101973.50;5054630;27;101516;-71
2024/03/19 08:11:36;;;;;;;;;;;;;;;9.66;43.23;101976.38;5054450;27;96756;-72
2024/03/19 08:14:02;;;;;;;;;;;;;;;10.10;41.56;101988.13;5052728;27;97315;-71
2024/03/19 08:16:29;;;;;;;;;;;;;;;10.20;40.76;101979.22;5054212;27;98808;-71
2024/03/19 08:18:59;;;;;;;;;;;;;;;10.24;40.96;101978.28;5047762;27;97723;-71
2024/03/19 08:21:26;;;;;;;;;;;;;;;10.42;40.24;101974.47;5051766;27;98934;-71
2024/03/19 08:23:53;;;;;;;;;;;;;;;10.24;40.61;101981.78;5051770;27;96985;-70
2024/03/19 08:26:20;;;;;;;;;;;;;;;10.23;40.42;101984.47;5053456;27;97568;-71
2024/03/19 08:28:46;;;;;;;;;;;;;;;10.63;39.86;101985.56;5059932;27;98769;-70
2024/03/19 08:31:13;;;;;;;;;;;;;;;11.79;38.05;101986.13;5050774;27;96894;-70
2024/03/19 08:33:40;;;;;;;;;;;;;;;11.63;37.17;101987.28;5052061;27;97281;-70
2024/03/19 08:36:06;;;;;;;;;;;;;;;11.08;38.19;101988.34;5055483;27;98938;-71
2024/03/19 08:38:33;;;;;;;;;;;;;;;10.87;38.81;101994.00;5064332;27;99106;-71
2024/03/19 08:41:00;;;;;;;;;;;;;;;10.70;38.92;101989.88;5048907;27;96863;-71
2024/03/19 08:43:26;;;;;;;;;;;;;;;10.61;39.26;101990.03;5051640;27;96875;-71
2024/03/19 08:45:54;;;;;;;;;;;;;;;10.67;39.31;101987.28;5053312;27;99006;-73
2024/03/19 08:48:20;;;;;;;;;;;;;;;10.73;39.11;101995.13;5060108;27;98773;-73
2024/03/19 08:50:47;;;;;;;;;;;;;;;11.00;38.29;101995.56;5049158;27;96783;-74
2024/03/19 08:53:13;;;;;;;;;;;;;;;10.86;38.43;101992.25;5050736;27;96944;-74
2024/03/19 08:55:39;;;;;;;;;;;;;;;10.44;38.35;101989.41;5053395;27;98691;-74
2024/03/19 08:58:08;;;;;;;;;;;;;;;10.23;38.82;101990.63;5054090;27;97595;-71
2024/03/19 09:00:34;;;;;;;;;;;;;;;10.41;39.05;101994.75;5050556;27;96808;-71
2024/03/19 09:03:03;;;;;;;;;;;;;;;10.67;38.91;101982.00;5055299;27;97038;-72
2024/03/19 09:05:29;;;;;;;;;;;;;;;10.64;38.77;101992.59;5050134;27;99516;-71
2024/03/19 09:07:56;;;;;;;;;;;;;;;10.86;38.20;101989.63;5052304;27;96841;-71
2024/03/19 09:10:22;;;;;;;;;;;;;;;11.06;37.50;101987.50;5049116;27;97349;-71
2024/03/19 09:12:48;;;;;;;;;;;;;;;11.10;36.91;101990.06;5049529;27;97289;-70
2024/03/19 09:15:16;;;;;;;;;;;;;;;10.83;37.26;101984.41;5054207;27;99610;-72
2024/03/19 09:17:42;;;;;;;;;;;;;;;10.58;38.19;101986.53;5049735;27;98771;-72
2024/03/19 09:20:10;;;;;;;;;;;;;;;11.04;37.34;101989.28;5052527;27;96765;-71
2024/03/19 09:22:36;;;;;;;;;;;;;;;11.30;37.19;101981.75;5058687;27;97332;-71
2024/03/19 09:25:02;;;;;;;;;;;;;;;11.06;37.32;101975.16;5054090;27;99480;-71
2024/03/19 09:27:29;;;;;;;;;;;;;;;11.56;36.90;101971.53;5051998;27;98066;-70
2024/03/19 09:29:55;;;;;;;;;;;;;;;11.82;36.19;101980.75;5051019;27;97224;-72
2024/03/19 09:32:23;;;;;;;;;;;;;;;11.65;35.93;101972.25;5051819;27;97729;-72
2024/03/19 09:34:49;;;;;;;;;;;;;;;11.69;35.91;101976.56;5044642;27;101358;-71
2024/03/19 09:37:16;;;;;;;;;;;;;;;12.07;35.26;101966.09;5050182;27;99153;-72
2024/03/19 09:39:42;;;;;;;;;;;;;;;11.91;35.33;101968.19;5050754;27;96782;-71
2024/03/19 09:42:10;;;;;;;;;;;;;;;11.37;35.80;101972.78;5050354;27;96821;-72
2024/03/19 09:44:36;;;;;;;;;;;;;;;11.46;35.76;101974.41;5044600;27;101680;-72
2024/03/19 09:47:04;;;;;;;;;;;;;;;11.51;36.30;101970.75;5050610;27;98839;-71
2024/03/19 09:49:33;;;;;;;;;;;;;;;11.35;35.86;101961.38;5050977;27;97249;-71
2024/03/19 09:52:01;;;;;;;;;;;;;;;11.51;35.68;101969.88;5051643;27;96748;-72
2024/03/19 09:54:28;;;;;;;;;;;;;;;11.57;35.57;101967.09;5048962;27;98945;-71
2024/03/19 09:56:54;;;;;;;;;;;;;;;11.69;35.49;101966.84;5045721;27;98998;-72
2024/03/19 09:59:22;;;;;;;;;;;;;;;11.91;35.27;101968.19;5052326;27;97377;-71
2024/03/19 10:01:48;;;;;;;;;;;;;;;11.90;35.26;101963.78;5043208;27;96862;-72
2024/03/19 10:04:15;;;;;;;;;;;;;;;12.08;34.84;101959.84;5045724;27;98990;-72
2024/03/19 10:06:47;;;;;;;;;;;;;;;12.42;34.44;101959.94;5045848;27;98774;-70
2024/03/19 10:09:16;;;;;;;;;;;;;;;12.37;34.78;101946.81;5050468;27;97475;-71
2024/03/19 10:11:42;;;;;;;;;;;;;;;12.21;34.32;101961.31;5046030;27;96935;-70
2024/03/19 10:14:10;;;;;;;;;;;;;;;12.05;34.46;101949.34;5049686;27;98868;-70
2024/03/19 10:16:39;;;;;;;;;;;;;;;12.42;34.61;101948.47;5048894;27;98978;-71
2024/03/19 10:19:06;;;;;;;;;;;;;;;12.35;34.12;101953.94;5043150;27;99895;-71
2024/03/19 10:21:32;;;;;;;;;;;;;;;12.12;34.48;101953.59;5052596;27;96903;-71
2024/03/19 10:24:06;;;;;;;;;;;;;;;12.27;34.26;101949.72;5053946;27;98749;-70
2024/03/19 10:26:32;;;;;;;;;;;;;;;12.57;33.78;101945.47;5049456;27;98730;-70
2024/03/19 10:29:00;;;;;;;;;;;;;;;12.96;33.34;101939.13;5052580;27;96709;-70
2024/03/19 10:31:27;;;;;;;;;;;;;;;13.00;32.86;101943.44;5053030;27;100384;-71
2024/03/19 10:33:55;;;;;;;;;;;;;;;13.21;32.49;101946.47;5051775;27;97758;-71
2024/03/19 10:36:23;;;;;;;;;;;;;;;12.66;32.75;101947.91;5053942;27;98749;-71
2024/03/19 10:38:50;;;;;;;;;;;;;;;12.04;33.78;101946.72;5053022;27;97017;-71
2024/03/19 10:41:19;;;;;;;;;;;;;;;12.20;33.68;101935.75;5053861;27;96837;-69
2024/03/19 10:43:46;;;;;;;;;;;;;;;12.57;33.07;101940.16;5051324;27;99213;-71
2024/03/19 10:46:13;;;;;;;;;;;;;;;12.73;32.80;101926.47;5050632;27;98708;-71
2024/03/19 10:48:39;;;;;;;;;;;;;;;12.95;32.43;101929.44;5053096;27;96822;-71
2024/03/19 10:51:07;;;;;;;;;;;;;;;13.02;32.44;101931.00;5054020;27;97267;-71
2024/03/19 10:53:34;;;;;;;;;;;;;;;12.75;32.57;101932.59;5045155;27;99276;-73
2024/03/19 10:56:02;;;;;;;;;;;;;;;12.84;32.41;101930.63;5053856;27;97462;-71
2024/03/19 10:58:30;;;;;;;;;;;;;;;12.66;32.26;101934.63;5051828;27;98884;-70
2024/03/19 11:00:57;;;;;;;;;;;;;;;13.01;32.17;101933.69;5050743;27;98229;-71
2024/03/19 11:03:23;;;;;;;;;;;;;;;12.90;32.03;101931.34;5046220;27;99231;-70
2024/03/19 11:05:51;;;;;;;;;;;;;;;13.02;32.01;101931.00;5050428;27;99568;-71
2024/03/19 11:08:18;;;;;;;;;;;;;;;12.95;31.80;101934.72;5053222;27;98803;-71
2024/03/19 11:10:44;;;;;;;;;;;;;;;13.05;32.03;101932.72;5047321;27;98493;-71
2024/03/19 11:13:12;;;;;;;;;;;;;;;13.34;31.49;101931.94;5050023;27;99530;-72
2024/03/19 11:15:42;;;;;;;;;;;;;;;13.16;31.66;101920.94;5048525;27;98837;-71
2024/03/19 11:18:17;;;;;;;;;;;;;;;13.35;31.40;101920.41;5053381;27;96770;-71
2024/03/19 11:20:46;;;;;;;;;;;;;;;13.25;31.59;101934.88;5048276;27;96831;-71
2024/03/19 11:23:14;;;;;;;;;;;;;;;12.97;31.44;101921.44;5046613;27;98917;-70
2024/03/19 11:25:40;;;;;;;;;;;;;;;12.98;31.46;101921.41;5049974;27;97133;-71
2024/03/19 11:28:18;;;;;;;;;;;;;;;12.84;31.72;101910.28;5047664;27;97134;-71
2024/03/19 11:30:47;;;;;;;;;;;;;;;13.29;31.49;101910.84;5050262;27;97309;-70
2024/03/19 11:33:14;;;;;;;;;;;;;;;13.15;31.60;101918.31;5051560;27;101188;-71
2024/03/19 11:35:40;;;;;;;;;;;;;;;13.07;31.70;101920.25;5046309;27;98907;-71
2024/03/19 11:38:13;;;;;;;;;;;;;;;13.36;31.02;101914.19;5048933;27;97032;-71
2024/03/19 11:40:40;;;;;;;;;;;;;;;13.24;31.22;101910.09;5045385;27;97103;-71
2024/03/19 11:43:06;;;;;;;;;;;;;;;13.02;31.39;101909.78;5052724;27;98752;-71
2024/03/19 11:45:33;;;;;;;;;;;;;;;12.91;31.63;101906.56;5045437;27;98926;-71
2024/03/19 11:48:01;;;;;;;;;;;;;;;13.10;31.33;101899.84;5053524;27;96783;-70
2024/03/19 11:50:30;;;;;;;;;;;;;;;13.13;31.36;101899.78;5050699;27;96848;-71
2024/03/19 11:52:58;;;;;;;;;;;;;;;13.03;31.68;101905.34;5047022;27;98105;-71
2024/03/19 11:55:25;;;;;;;;;;;;;;;12.86;31.84;101895.22;5050747;27;97481;-71
2024/03/19 11:57:51;;;;;;;;;;;;;;;12.96;31.71;101893.16;5053274;27;96834;-71
2024/03/19 12:00:19;;;;;;;;;;;;;;;13.18;31.60;101882.88;5047724;27;96954;-71
2024/03/19 12:02:46;;;;;;;;;;;;;;;13.62;31.00;101889.53;5052326;27;99296;-71
2024/03/19 12:05:14;;;;;;;;;;;;;;;13.30;30.57;101899.31;5048153;27;99216;-71
2024/03/19 12:07:45;;;;;;;;;;;;;;;13.40;30.68;101894.59;5052275;27;97471;-71
2024/03/19 12:10:12;;;;;;;;;;;;;;;13.65;30.81;101882.34;5050158;27;96813;-71
2024/03/19 12:12:38;;;;;;;;;;;;;;;13.62;30.93;101890.41;5051778;27;97673;-71
2024/03/19 12:15:07;;;;;;;;;;;;;;;13.90;30.34;101875.38;5049886;27;101031;-71
2024/03/19 12:17:34;;;;;;;;;;;;;;;14.11;29.87;101873.78;5052148;27;96724;-71
2024/03/19 12:20:03;;;;;;;;;;;;;;;14.51;29.55;101872.50;5049633;27;97018;-70
2024/03/19 12:22:31;;;;;;;;;;;;;;;14.62;28.99;101868.56;5052042;27;99220;-71
2024/03/19 12:24:57;;;;;;;;;;;;;;;14.66;28.81;101866.66;5050889;27;98824;-71
2024/03/19 12:27:24;;;;;;;;;;;;;;;14.88;28.93;101866.78;5053264;27;96772;-71
2024/03/19 12:29:50;;;;;;;;;;;;;;;14.70;28.97;101863.84;5050673;27;96835;-70
2024/03/19 12:32:25;;;;;;;;;;;;;;;14.85;28.75;101864.22;5044410;27;98962;-70
2024/03/19 12:34:59;;;;;;;;;;;;;;;14.69;28.84;101858.59;5042887;27;99011;-71
2024/03/19 12:37:25;;;;;;;;;;;;;;;14.51;29.30;101860.06;5052203;27;97120;-70
2024/03/19 12:39:53;;;;;;;;;;;;;;;14.30;29.41;101863.44;5051662;27;96716;-71
2024/03/19 12:42:19;;;;;;;;;;;;;;;14.14;29.51;101847.13;5051463;27;99354;-71